KSPA/SPA METAR and TAF weather

Enter ICAO airport designator
Station Type Date Time Source
KSPA METAR 2020/04/03 22:15 UTC NOAA

KSPA 032215Z AUTO 32003KT 10SM CLR 24/M04 A2989 RMK AO2


Station Type Date Time Source
KSPA Decoded METAR 2020/04/03 22:15 UTC NOAA

Spartanburg Memorial, SC, United States (KSPA) 34-55N 081-57W
Apr 03, 2020 - 06:15 PM EDT / 2020.04.03 2215 UTC
Wind: from the NW (320 degrees) at 3 MPH (3 KT):0
Visibility: 10 mile(s):0
Sky conditions: clear
Temperature: 75 F (24 C)
Dew Point: 24 F (-4 C)
Relative Humidity: 15%
Pressure (altimeter): 29.89 in. Hg (1012 hPa)
ob: KSPA 032215Z AUTO 32003KT 10SM CLR 24/M04 A2989 RMK AO2
cycle: 22

Station Type Date Time Source
KSPA TAF UTC NOAA

Error!

Example: see airport list